createdAt,value
2022-09-04T06:39:18.697Z,21.5
2022-09-04T06:45:01.079Z,21.6
2022-09-04T06:50:40.765Z,21.6
2022-09-04T06:56:29.303Z,21.8
2022-09-04T07:02:07.160Z,21.8
2022-09-04T07:07:44.344Z,21.8
2022-09-04T07:13:05.341Z,21.8
2022-09-04T07:18:44.091Z,21.9
2022-09-04T07:24:21.379Z,21.9
2022-09-04T07:29:59.998Z,21.9
2022-09-04T07:35:38.246Z,21.9
2022-09-04T07:41:24.024Z,21.9
2022-09-04T07:47:01.785Z,21.9
2022-09-04T07:52:45.252Z,21.9
2022-09-04T07:58:32.198Z,21.9
2022-09-04T08:04:12.312Z,22
2022-09-04T08:09:56.598Z,22
2022-09-04T08:15:32.260Z,21.9
2022-09-04T08:21:13.107Z,22
2022-09-04T08:26:35.140Z,22.1
2022-09-04T08:32:16.266Z,22.1
2022-09-04T08:37:58.426Z,22
2022-09-04T08:43:23.350Z,22
2022-09-04T08:49:05.071Z,22.1
2022-09-04T08:54:29.096Z,22.1
2022-09-04T08:59:54.743Z,22.1
2022-09-04T09:05:01.866Z,22.1
2022-09-04T09:10:43.320Z,22.1
2022-09-04T09:16:06.890Z,22.1
2022-09-04T09:21:33.770Z,22.1
2022-09-04T09:27:15.089Z,22.1
2022-09-04T09:32:54.952Z,22.1
2022-09-04T09:38:21.640Z,22.1
2022-09-04T09:44:02.067Z,22.1
2022-09-04T09:49:49.027Z,22.1
2022-09-04T09:55:27.657Z,22.2
2022-09-04T10:01:16.202Z,22.2
2022-09-04T10:06:52.789Z,22.2
2022-09-04T10:12:34.967Z,22.2
2022-09-04T10:18:11.042Z,22.2
2022-09-04T10:23:52.442Z,22.2
2022-09-04T10:29:39.879Z,22.2
2022-09-04T10:35:24.747Z,22.3
2022-09-04T10:41:05.615Z,22.3
2022-09-04T11:09:52.860Z,22.3
2022-09-04T11:15:31.688Z,22.4
2022-09-04T11:20:56.929Z,22.4
2022-09-04T11:26:37.699Z,22.4
2022-09-04T11:32:16.187Z,22.4
2022-09-04T11:37:57.062Z,22.5
2022-09-04T11:43:34.749Z,22.7
2022-09-04T11:49:13.615Z,22.7
2022-09-04T11:54:50.754Z,22.8
2022-09-04T12:00:28.522Z,22.9
2022-09-04T12:06:07.053Z,22.8
2022-09-04T12:11:57.981Z,22.8
2022-09-04T12:17:53.773Z,22.8
2022-09-04T12:23:32.657Z,22.8
2022-09-04T12:29:21.492Z,22.8
2022-09-04T12:35:04.529Z,22.7
2022-09-04T12:40:42.060Z,22.7
2022-09-04T12:46:25.141Z,22.8
2022-09-04T12:52:03.706Z,22.8
2022-09-04T12:57:48.154Z,22.8
2022-09-04T13:03:20.633Z,22.8
2022-09-04T13:09:11.690Z,22.7
2022-09-04T13:14:58.991Z,22.7
2022-09-04T13:20:37.787Z,22.7
2022-09-04T13:26:08.112Z,22.8
2022-09-04T13:31:48.358Z,22.8
2022-09-04T13:37:32.464Z,22.8
2022-09-04T13:43:10.283Z,22.8
2022-09-04T13:48:56.089Z,22.8
2022-09-04T13:54:38.957Z,22.8
2022-09-04T14:00:26.507Z,22.8
2022-09-04T14:06:07.720Z,22.8
2022-09-04T14:11:50.300Z,22.8
2022-09-04T14:17:34.159Z,22.8
2022-09-04T14:23:30.887Z,22.8
2022-09-04T14:29:15.303Z,22.8
2022-09-04T14:35:15.639Z,22.8
2022-09-04T14:40:52.790Z,22.9
2022-09-04T14:46:30.369Z,22.8
2022-09-04T14:52:16.650Z,22.8
2022-09-04T14:57:58.402Z,22.8
2022-09-04T15:03:38.552Z,22.8
2022-09-04T15:09:48.368Z,22.8
2022-09-04T15:15:43.465Z,22.8
2022-09-04T18:54:26.563Z,22.3
2022-09-04T19:00:17.019Z,22.3
2022-09-04T19:06:18.747Z,22.2
2022-09-04T19:12:16.542Z,22
2022-09-04T19:18:25.721Z,22
2022-09-04T19:24:24.025Z,21.9
2022-09-04T19:30:35.714Z,22
2022-09-04T19:36:22.451Z,22.1
2022-09-04T19:55:57.697Z,22.2
2022-09-04T20:03:01.651Z,22.1
2022-09-04T20:09:09.121Z,22.1
2022-09-04T20:15:04.491Z,22.1
2022-09-04T20:21:02.422Z,22.1
2022-09-04T20:27:13.657Z,22.1
2022-09-04T20:33:04.322Z,22.1
2022-09-04T20:38:47.534Z,21.9
2022-09-04T20:44:29.512Z,21.9
2022-09-04T21:04:23.731Z,21.5
2022-09-04T21:15:52.317Z,21.3
2022-09-04T21:21:52.044Z,21.4
2022-09-04T21:28:06.987Z,21.8
2022-09-04T21:34:26.175Z,21.9
2022-09-04T21:41:07.134Z,21.9
2022-09-04T21:47:07.336Z,22
2022-09-04T21:53:34.257Z,22.1
2022-09-04T22:14:37.011Z,22.1
2022-09-04T22:20:23.235Z,22.2
2022-09-04T22:26:08.654Z,22.2
2022-09-04T22:32:54.063Z,22.2
2022-09-04T22:38:58.336Z,22.2
2022-09-04T22:45:10.328Z,22.3
2022-09-04T22:51:23.698Z,22.3
2022-09-04T22:57:46.313Z,22.3
2022-09-04T23:04:23.316Z,22.3
2022-09-04T23:19:23.744Z,22.3
2022-09-04T23:33:18.291Z,22.4
2022-09-04T23:39:40.758Z,22.4
2022-09-04T23:45:36.802Z,22.4
2022-09-04T23:51:53.118Z,22.4
2022-09-04T23:58:00.865Z,22.4
